createdAt,value
2023-04-18T00:00:18.953Z,8.20
2023-04-18T00:05:48.292Z,8.00
2023-04-18T00:08:21.183Z,8.00
2023-04-18T00:10:54.140Z,7.90
2023-04-18T00:13:28.539Z,7.90
2023-04-18T00:16:01.843Z,7.90
2023-04-18T00:18:36.904Z,8.00
2023-04-18T00:21:09.628Z,7.90
2023-04-18T00:23:42.445Z,8.00
2023-04-18T00:26:14.988Z,7.90
2023-04-18T00:28:47.801Z,7.90
2023-04-18T00:31:20.432Z,7.80
2023-04-18T00:33:53.235Z,7.80
2023-04-18T00:36:27.174Z,7.70
2023-04-18T00:38:59.942Z,7.70
2023-04-18T00:41:32.511Z,7.70
2023-04-18T00:44:05.388Z,7.60
2023-04-18T00:46:37.995Z,7.60
2023-04-18T00:49:13.609Z,7.60
2023-04-18T00:51:46.887Z,7.60
2023-04-18T00:54:20.637Z,7.50
2023-04-18T00:56:53.429Z,7.60
2023-04-18T00:59:26.297Z,7.60
2023-04-18T01:01:59.240Z,7.50
2023-04-18T01:04:32.644Z,7.60
2023-04-18T01:07:06.129Z,7.60
2023-04-18T01:09:39.354Z,7.60
2023-04-18T01:12:11.893Z,7.70
2023-04-18T01:14:44.688Z,7.70
2023-04-18T01:17:17.591Z,7.80
2023-04-18T01:19:51.096Z,7.80
2023-04-18T01:22:24.063Z,7.80
2023-04-18T01:24:57.210Z,7.80
2023-04-18T01:27:29.680Z,7.80
2023-04-18T01:30:02.649Z,7.80
2023-04-18T01:32:35.215Z,7.90
2023-04-18T01:35:08.514Z,7.90
2023-04-18T01:37:41.303Z,7.90
2023-04-18T01:40:14.296Z,7.90
2023-04-18T01:42:46.733Z,7.90
2023-04-18T01:45:20.470Z,7.90
2023-04-18T01:47:52.960Z,7.90
2023-04-18T01:50:25.795Z,8.00
2023-04-18T01:52:58.295Z,8.00
2023-04-18T01:55:31.014Z,8.00
2023-04-18T01:58:03.479Z,8.00
2023-04-18T02:00:36.532Z,8.00
2023-04-18T02:03:09.108Z,8.00
2023-04-18T02:05:42.015Z,8.00
2023-04-18T02:08:14.707Z,8.10
2023-04-18T02:10:47.518Z,8.10
2023-04-18T02:13:19.997Z,8.10
2023-04-18T02:15:52.874Z,8.10
2023-04-18T02:18:26.617Z,8.10
2023-04-18T02:20:59.376Z,8.10
2023-04-18T02:23:31.892Z,8.20
2023-04-18T02:26:04.683Z,8.20
2023-04-18T02:28:39.609Z,8.20
2023-04-18T02:31:14.913Z,8.20
2023-04-18T02:33:48.153Z,8.30
2023-04-18T02:36:20.976Z,8.20
2023-04-18T02:38:54.060Z,8.20
2023-04-18T02:41:27.058Z,8.20
2023-04-18T02:43:59.665Z,8.20
2023-04-18T02:46:32.576Z,8.20
2023-04-18T02:49:05.099Z,8.20
2023-04-18T02:51:37.834Z,8.20
2023-04-18T02:54:10.499Z,8.20
2023-04-18T02:56:43.254Z,8.20
2023-04-18T02:59:15.747Z,8.30
2023-04-18T03:01:48.615Z,8.30
2023-04-18T03:04:21.333Z,8.30
2023-04-18T03:06:54.111Z,8.30
2023-04-18T03:09:27.241Z,8.30
2023-04-18T03:12:00.028Z,8.30
2023-04-18T03:14:32.539Z,8.30
2023-04-18T03:17:05.614Z,8.30
2023-04-18T03:19:38.117Z,8.30
2023-04-18T03:22:10.858Z,8.30
2023-04-18T03:24:43.397Z,8.40
2023-04-18T03:27:16.501Z,8.30
2023-04-18T03:29:49.260Z,8.30
2023-04-18T03:32:22.368Z,8.30
2023-04-18T03:34:55.027Z,8.30
2023-04-18T03:37:27.765Z,8.30
2023-04-18T03:40:00.239Z,8.40
2023-04-18T03:42:33.020Z,8.30
2023-04-18T03:45:05.917Z,8.30
2023-04-18T03:47:38.732Z,8.30
2023-04-18T03:50:11.302Z,8.30
2023-04-18T03:52:44.036Z,8.30
2023-04-18T03:55:16.607Z,8.30
2023-04-18T03:57:49.347Z,8.30
2023-04-18T04:00:21.897Z,8.30
2023-04-18T04:02:55.090Z,8.30
2023-04-18T04:05:28.203Z,8.40
2023-04-18T04:08:00.966Z,8.40
2023-04-18T04:10:33.423Z,8.40
2023-04-18T04:13:06.254Z,8.40
2023-04-18T04:15:39.092Z,8.40
2023-04-18T04:18:11.841Z,8.40
2023-04-18T04:20:46.181Z,8.50
2023-04-18T04:23:18.956Z,8.50
2023-04-18T04:25:55.861Z,8.50
2023-04-18T04:28:28.824Z,8.60
2023-04-18T04:31:01.774Z,8.60
2023-04-18T04:33:35.689Z,8.60
2023-04-18T04:36:09.051Z,8.70
2023-04-18T04:38:42.100Z,8.70
2023-04-18T04:41:15.037Z,8.80
2023-04-18T04:43:47.880Z,8.80
2023-04-18T04:46:20.697Z,8.90
2023-04-18T04:48:54.467Z,8.90
2023-04-18T04:51:28.030Z,8.90
2023-04-18T04:54:01.812Z,9.00
2023-04-18T04:56:34.376Z,9.10
2023-04-18T04:59:07.618Z,9.10
2023-04-18T05:01:41.408Z,9.10
2023-04-18T05:04:17.297Z,9.10
2023-04-18T05:06:50.768Z,9.10
2023-04-18T05:09:23.674Z,9.20
2023-04-18T05:11:56.220Z,9.20
2023-04-18T05:14:29.003Z,9.30
2023-04-18T05:17:01.606Z,9.30
2023-04-18T05:19:35.274Z,9.40
2023-04-18T05:22:07.784Z,9.40
2023-04-18T05:24:41.283Z,9.50
2023-04-18T05:27:18.186Z,9.50
2023-04-18T05:29:51.115Z,9.60
2023-04-18T05:32:23.793Z,9.60
2023-04-18T05:34:56.608Z,9.70
2023-04-18T05:37:29.218Z,9.70
2023-04-18T05:40:02.164Z,9.70
2023-04-18T05:42:34.774Z,9.70
2023-04-18T05:45:08.178Z,9.80
2023-04-18T05:47:40.820Z,9.80
2023-04-18T05:50:13.595Z,9.90
2023-04-18T05:52:46.072Z,9.90
2023-04-18T05:55:18.839Z,10.00
2023-04-18T05:57:51.319Z,10.00
2023-04-18T06:00:24.355Z,10.10
2023-04-18T06:02:57.356Z,10.10
2023-04-18T06:05:30.717Z,10.20
2023-04-18T06:08:03.691Z,10.30
2023-04-18T06:10:37.729Z,10.30
2023-04-18T06:13:11.629Z,10.40
2023-04-18T06:15:44.426Z,10.40
2023-04-18T06:18:17.014Z,10.40
2023-04-18T06:20:49.886Z,10.40
2023-04-18T06:23:22.379Z,10.50
2023-04-18T06:25:55.762Z,10.50
2023-04-18T06:28:28.222Z,10.60
2023-04-18T06:31:00.998Z,10.60
2023-04-18T06:33:33.735Z,10.60
2023-04-18T06:36:07.455Z,10.60
2023-04-18T06:38:39.913Z,10.70
2023-04-18T06:41:14.657Z,10.80
2023-04-18T06:44:02.123Z,11.00
2023-04-18T06:46:36.817Z,11.10
2023-04-18T06:49:09.827Z,11.30
2023-04-18T06:51:42.621Z,11.40
2023-04-18T06:54:15.278Z,11.60
2023-04-18T06:56:48.219Z,11.60
2023-04-18T06:59:21.673Z,11.70
2023-04-18T07:01:54.572Z,11.80
2023-04-18T07:04:27.093Z,11.90
2023-04-18T07:07:01.466Z,12.10
2023-04-18T07:09:34.022Z,12.20
2023-04-18T07:12:07.240Z,12.40
2023-04-18T07:14:39.774Z,12.40
2023-04-18T07:17:12.715Z,12.50
2023-04-18T07:19:45.215Z,12.60
2023-04-18T07:22:17.993Z,12.60
2023-04-18T07:24:50.569Z,12.60
2023-04-18T07:27:23.460Z,12.60
2023-04-18T07:29:55.956Z,12.60
2023-04-18T07:32:28.879Z,12.60
2023-04-18T07:35:01.440Z,12.70
2023-04-18T07:37:34.661Z,12.80
2023-04-18T07:40:07.637Z,12.80
2023-04-18T07:42:40.483Z,12.90
2023-04-18T07:45:12.974Z,12.90
2023-04-18T07:47:46.055Z,13.00
2023-04-18T07:50:18.639Z,13.00
2023-04-18T07:52:51.541Z,13.00
2023-04-18T07:55:24.472Z,12.90
2023-04-18T07:57:57.219Z,12.80
2023-04-18T08:00:32.670Z,12.80
2023-04-18T08:03:07.711Z,13.00
2023-04-18T08:05:41.314Z,13.00
2023-04-18T08:08:14.187Z,13.10
2023-04-18T08:10:46.715Z,13.20
2023-04-18T08:13:19.811Z,13.30
2023-04-18T08:15:52.375Z,13.40
2023-04-18T08:18:25.678Z,13.50
2023-04-18T08:20:58.237Z,13.50
2023-04-18T08:23:30.997Z,13.60
2023-04-18T08:26:03.479Z,13.80
2023-04-18T08:28:36.270Z,13.90
2023-04-18T08:31:12.911Z,14.00
2023-04-18T08:33:45.752Z,14.10
2023-04-18T08:36:18.247Z,14.10
2023-04-18T08:38:51.020Z,14.30
2023-04-18T08:41:24.240Z,14.40
2023-04-18T08:43:57.440Z,14.60
2023-04-18T08:46:39.151Z,14.70
2023-04-18T08:49:13.199Z,14.90
2023-04-18T08:51:49.573Z,15.00
2023-04-18T08:54:22.684Z,15.10
2023-04-18T08:57:08.850Z,15.20
2023-04-18T08:59:43.135Z,15.20
2023-04-18T09:02:16.646Z,15.20
2023-04-18T09:04:52.833Z,15.40
2023-04-18T09:07:29.407Z,15.40
2023-04-18T09:10:02.259Z,15.50
2023-04-18T09:12:50.708Z,15.70
2023-04-18T09:15:27.264Z,15.90
2023-04-18T09:18:02.735Z,16.10
2023-04-18T09:20:38.533Z,16.10
2023-04-18T09:23:14.666Z,16.10
2023-04-18T09:25:49.752Z,16.20
2023-04-18T09:28:25.591Z,16.20
2023-04-18T09:31:08.068Z,16.20
2023-04-18T09:33:47.310Z,16.20
2023-04-18T09:36:27.228Z,16.20
2023-04-18T09:39:00.244Z,16.20
2023-04-18T09:42:02.569Z,16.20
2023-04-18T09:44:35.113Z,16.40
2023-04-18T09:47:07.987Z,16.50
2023-04-18T09:49:40.516Z,16.70
2023-04-18T09:52:13.376Z,16.80
2023-04-18T09:54:49.214Z,17.00
2023-04-18T09:57:27.013Z,17.00
2023-04-18T10:00:20.535Z,17.00
2023-04-18T10:03:00.851Z,17.00
2023-04-18T10:05:36.407Z,16.90
2023-04-18T10:08:24.558Z,16.70
2023-04-18T10:11:01.069Z,16.60
2023-04-18T10:13:36.705Z,16.60
2023-04-18T10:16:11.120Z,16.60
2023-04-18T10:18:43.773Z,16.60
2023-04-18T10:21:16.780Z,16.70
2023-04-18T10:23:50.391Z,16.70
2023-04-18T10:26:47.050Z,16.80
2023-04-18T10:29:44.400Z,16.80
2023-04-18T10:32:18.986Z,16.80
2023-04-18T10:34:53.973Z,16.90
2023-04-18T10:37:27.186Z,17.00
2023-04-18T10:40:06.722Z,16.80
2023-04-18T10:42:48.115Z,16.90
2023-04-18T10:45:28.961Z,17.10
2023-04-18T10:48:29.975Z,17.30
2023-04-18T10:51:26.594Z,17.50
2023-04-18T10:54:01.026Z,17.70
2023-04-18T10:56:33.658Z,17.80
2023-04-18T10:59:12.216Z,17.90
2023-04-18T11:01:49.141Z,17.90
2023-04-18T11:04:23.543Z,18.10
2023-04-18T11:06:59.492Z,18.30
2023-04-18T11:09:32.514Z,18.40
2023-04-18T11:12:10.563Z,18.40
2023-04-18T11:14:45.422Z,18.50
2023-04-18T11:17:22.488Z,18.50
2023-04-18T11:20:14.927Z,18.50
2023-04-18T11:22:49.152Z,18.80
2023-04-18T11:25:31.968Z,18.90
2023-04-18T11:28:05.188Z,19.00
2023-04-18T11:30:39.543Z,19.10
2023-04-18T11:33:14.047Z,19.30
2023-04-18T11:35:49.889Z,19.10
2023-04-18T11:38:28.892Z,18.80
2023-04-18T11:41:05.109Z,18.50
2023-04-18T11:43:37.687Z,18.40
2023-04-18T11:46:11.449Z,18.50
2023-04-18T11:48:47.881Z,18.70
2023-04-18T11:51:39.693Z,18.80
2023-04-18T11:54:41.358Z,18.90
2023-04-18T11:57:25.740Z,18.80
2023-04-18T11:59:59.925Z,19.00
2023-04-18T12:02:47.588Z,19.10
2023-04-18T12:05:34.897Z,19.10
2023-04-18T12:08:11.920Z,19.00
2023-04-18T12:10:50.537Z,19.00
2023-04-18T12:13:31.686Z,18.90
2023-04-18T12:16:04.371Z,18.90
2023-04-18T12:18:37.746Z,18.90
2023-04-18T12:21:10.833Z,18.80
2023-04-18T12:23:45.928Z,18.80
2023-04-18T12:26:18.496Z,18.90
2023-04-18T12:28:52.861Z,19.10
2023-04-18T12:31:25.386Z,19.30
2023-04-18T12:34:00.160Z,19.40
2023-04-18T12:36:32.718Z,19.30
2023-04-18T12:39:05.643Z,19.30
2023-04-18T12:41:38.259Z,19.30
2023-04-18T12:44:11.155Z,19.40
2023-04-18T12:46:43.786Z,19.70
2023-04-18T12:49:16.577Z,19.90
2023-04-18T12:51:49.078Z,19.90
2023-04-18T12:54:21.924Z,19.90
2023-04-18T12:56:54.395Z,19.90
2023-04-18T12:59:28.056Z,19.90
2023-04-18T13:02:00.804Z,19.90
2023-04-18T13:04:33.917Z,19.90
2023-04-18T13:07:25.656Z,19.90
2023-04-18T13:09:58.484Z,19.60
2023-04-18T13:12:31.067Z,19.40
2023-04-18T13:15:05.372Z,19.30
2023-04-18T13:17:38.933Z,19.20
2023-04-18T13:20:15.590Z,19.20
2023-04-18T13:22:48.102Z,19.20
2023-04-18T13:25:20.936Z,19.30
2023-04-18T13:27:53.521Z,19.30
2023-04-18T13:30:26.434Z,19.20
2023-04-18T13:32:58.954Z,18.90
2023-04-18T13:35:31.810Z,18.70
2023-04-18T13:38:04.337Z,18.60
2023-04-18T13:40:38.853Z,18.50
2023-04-18T13:43:13.133Z,18.60
2023-04-18T13:45:46.071Z,18.70
2023-04-18T13:48:18.554Z,18.90
2023-04-18T13:50:51.347Z,19.00
2023-04-18T13:53:23.894Z,19.00
2023-04-18T13:55:57.072Z,19.10
2023-04-18T13:58:29.912Z,18.80
2023-04-18T14:01:03.128Z,18.50
2023-04-18T14:03:37.918Z,18.00
2023-04-18T14:06:11.838Z,17.70
2023-04-18T14:08:44.339Z,17.30
2023-04-18T14:11:20.056Z,16.80
2023-04-18T14:13:52.561Z,16.40
2023-04-18T14:19:15.660Z,16.20
2023-04-18T14:21:48.842Z,16.20
2023-04-18T14:24:21.436Z,16.20
2023-04-18T14:26:54.785Z,16.30
2023-04-18T14:29:27.303Z,16.40
2023-04-18T14:32:00.193Z,16.40
2023-04-18T14:34:38.857Z,16.50
2023-04-18T14:37:14.169Z,16.50
2023-04-18T14:39:48.606Z,16.60
2023-04-18T14:42:21.974Z,16.60
2023-04-18T14:44:54.989Z,16.50
2023-04-18T14:47:34.300Z,16.60
2023-04-18T14:50:15.567Z,16.80
2023-04-18T14:52:49.613Z,16.90
2023-04-18T14:55:22.258Z,16.90
2023-04-18T14:57:57.619Z,17.00
2023-04-18T15:00:31.409Z,17.30
2023-04-18T15:03:17.377Z,17.50
2023-04-18T15:05:59.818Z,17.30
2023-04-18T15:08:37.068Z,17.30
2023-04-18T15:11:15.947Z,17.20
2023-04-18T15:13:50.224Z,16.70
2023-04-18T15:16:22.932Z,16.30
2023-04-18T15:18:55.979Z,16.50
2023-04-18T15:21:28.582Z,17.10
2023-04-18T15:24:01.486Z,17.80
2023-04-18T15:26:34.077Z,17.90
2023-04-18T15:29:07.030Z,17.50
2023-04-18T15:31:39.554Z,17.40
2023-04-18T15:34:12.704Z,17.60
2023-04-18T15:36:48.839Z,17.90
2023-04-18T15:39:23.571Z,17.80
2023-04-18T15:41:56.615Z,17.20
2023-04-18T15:44:30.782Z,16.70
2023-04-18T15:47:03.375Z,16.40
2023-04-18T15:49:36.148Z,16.20
2023-04-18T15:52:08.655Z,16.10
2023-04-18T15:54:42.862Z,16.00
2023-04-18T15:57:15.803Z,15.80
2023-04-18T15:59:48.551Z,15.70
2023-04-18T16:02:21.067Z,15.50
2023-04-18T16:04:54.239Z,15.50
2023-04-18T16:07:26.738Z,15.40
2023-04-18T16:10:02.700Z,15.20
2023-04-18T16:12:35.703Z,15.10
2023-04-18T16:15:09.834Z,14.90
2023-04-18T16:17:42.460Z,14.70
2023-04-18T16:20:15.461Z,14.50
2023-04-18T16:22:48.065Z,14.40
2023-04-18T16:25:20.876Z,14.20
2023-04-18T16:27:53.383Z,14.10
2023-04-18T16:30:26.292Z,14.00
2023-04-18T16:32:58.778Z,13.80
2023-04-18T16:35:31.917Z,13.70
2023-04-18T16:38:04.515Z,13.50
2023-04-18T16:40:38.068Z,13.50
2023-04-18T16:43:10.587Z,13.40
2023-04-18T16:45:45.777Z,13.40
2023-04-18T16:48:19.439Z,13.30
2023-04-18T16:50:54.228Z,13.30
2023-04-18T16:53:31.265Z,13.30
2023-04-18T16:56:04.375Z,13.20
2023-04-18T16:58:39.484Z,13.10
2023-04-18T17:01:12.357Z,13.10
2023-04-18T17:03:44.932Z,13.00
2023-04-18T17:06:19.432Z,13.00
2023-04-18T17:08:53.913Z,12.90
2023-04-18T17:11:26.747Z,12.90
2023-04-18T17:13:59.302Z,12.80
2023-04-18T17:16:32.100Z,12.70
2023-04-18T17:19:05.207Z,12.60
2023-04-18T17:21:38.480Z,12.50
2023-04-18T17:24:14.417Z,12.40
2023-04-18T17:26:47.326Z,12.30
2023-04-18T17:29:19.853Z,12.30
2023-04-18T17:31:55.493Z,12.20
2023-04-18T17:34:28.092Z,12.10
2023-04-18T17:37:00.984Z,12.10
2023-04-18T17:39:33.454Z,12.00
2023-04-18T17:42:06.485Z,11.90
2023-04-18T17:44:39.833Z,11.90
2023-04-18T17:47:12.869Z,11.80
2023-04-18T17:49:46.055Z,11.70
2023-04-18T17:52:21.947Z,11.70
2023-04-18T17:54:56.409Z,11.60
2023-04-18T17:57:30.598Z,11.50
2023-04-18T18:00:07.333Z,11.40
2023-04-18T18:02:42.513Z,11.30
2023-04-18T18:05:16.641Z,11.30
2023-04-18T18:07:49.791Z,11.30
2023-04-18T18:10:23.956Z,11.20
2023-04-18T18:12:57.488Z,11.20
2023-04-18T18:15:30.638Z,11.20
2023-04-18T18:18:03.652Z,11.10
2023-04-18T18:20:36.274Z,11.00
2023-04-18T18:23:09.317Z,11.00
2023-04-18T18:25:44.635Z,10.90
2023-04-18T18:28:17.842Z,10.80
2023-04-18T18:30:50.521Z,10.80
2023-04-18T18:33:23.541Z,10.70
2023-04-18T18:35:58.525Z,10.70
2023-04-18T18:38:32.925Z,10.70
2023-04-18T18:41:05.779Z,10.70
2023-04-18T18:43:38.940Z,10.60
2023-04-18T18:46:11.529Z,10.60
2023-04-18T18:48:55.168Z,10.60
2023-04-18T18:51:28.003Z,10.50
2023-04-18T18:54:00.813Z,10.50
2023-04-18T18:56:33.338Z,10.50
2023-04-18T18:59:06.375Z,10.40
2023-04-18T19:01:46.552Z,10.40
2023-04-18T19:04:19.454Z,10.40
2023-04-18T19:06:54.929Z,10.30
2023-04-18T19:09:27.823Z,10.20
2023-04-18T19:12:04.996Z,10.20
2023-04-18T19:14:37.921Z,10.20
2023-04-18T19:17:10.460Z,10.10
2023-04-18T19:19:44.350Z,10.10
2023-04-18T19:22:16.950Z,10.00
2023-04-18T19:25:00.663Z,10.00
2023-04-18T19:27:33.144Z,10.00
2023-04-18T19:30:06.565Z,9.80
2023-04-18T19:32:39.164Z,9.70
2023-04-18T19:35:13.849Z,9.60
2023-04-18T19:37:46.813Z,9.50
2023-04-18T19:40:49.818Z,9.40
2023-04-18T19:43:23.382Z,9.30
2023-04-18T19:45:56.410Z,9.10
2023-04-18T19:48:40.947Z,9.00
2023-04-18T19:51:16.810Z,9.00
2023-04-18T19:53:49.305Z,8.90
2023-04-18T19:56:22.748Z,8.80
2023-04-18T19:58:55.876Z,8.70
2023-04-18T20:01:30.098Z,8.60
2023-04-18T20:04:02.966Z,8.60
2023-04-18T20:06:36.532Z,8.50
2023-04-18T20:09:15.419Z,8.40
2023-04-18T20:11:49.674Z,8.30
2023-04-18T20:14:23.327Z,8.30
2023-04-18T20:16:58.668Z,8.20
2023-04-18T20:19:31.405Z,8.10
2023-04-18T20:22:04.638Z,8.00
2023-04-18T20:24:39.393Z,8.00
2023-04-18T20:27:14.253Z,7.90
2023-04-18T20:29:49.463Z,7.90
2023-04-18T20:32:26.747Z,7.80
2023-04-18T20:35:00.010Z,7.70
2023-04-18T20:37:36.736Z,7.70
2023-04-18T20:40:10.054Z,7.60
2023-04-18T20:42:42.938Z,7.50
2023-04-18T20:45:15.699Z,7.40
2023-04-18T20:47:48.902Z,7.40
2023-04-18T20:50:21.587Z,7.30
2023-04-18T20:52:55.354Z,7.20
2023-04-18T20:55:28.422Z,7.20
2023-04-18T20:58:01.232Z,7.20
2023-04-18T21:00:34.102Z,7.10
2023-04-18T21:03:07.221Z,7.10
2023-04-18T21:05:39.941Z,7.10
2023-04-18T21:08:13.076Z,7.10
2023-04-18T21:10:45.760Z,7.10
2023-04-18T21:13:18.612Z,7.10
2023-04-18T21:15:52.112Z,7.10
2023-04-18T21:18:25.024Z,7.00
2023-04-18T21:20:57.542Z,7.00
2023-04-18T21:23:30.401Z,7.00
2023-04-18T21:26:02.886Z,7.00
2023-04-18T21:28:52.346Z,7.00
2023-04-18T21:31:26.482Z,7.00
2023-04-18T21:34:01.431Z,6.90
2023-04-18T21:36:34.002Z,6.90
2023-04-18T21:39:06.787Z,6.90
2023-04-18T21:41:39.299Z,6.80
2023-04-18T21:44:12.108Z,6.80
2023-04-18T21:46:45.410Z,6.80
2023-04-18T21:49:18.263Z,6.70
2023-04-18T21:51:50.736Z,6.70
2023-04-18T21:54:23.506Z,6.60
2023-04-18T21:56:55.987Z,6.60
2023-04-18T21:59:28.804Z,6.50
2023-04-18T22:02:01.342Z,6.50
2023-04-18T22:04:34.639Z,6.50
2023-04-18T22:07:07.181Z,6.40
2023-04-18T22:09:40.007Z,6.40
2023-04-18T22:12:14.143Z,6.30
2023-04-18T22:14:50.875Z,6.30
2023-04-18T22:17:23.408Z,6.20
2023-04-18T22:19:57.788Z,6.20
2023-04-18T22:22:30.288Z,6.20
2023-04-18T22:25:03.296Z,6.10
2023-04-18T22:27:35.813Z,6.10
2023-04-18T22:30:09.244Z,6.10
2023-04-18T22:32:41.958Z,6.00
2023-04-18T22:35:14.816Z,6.00
2023-04-18T22:37:47.569Z,6.00
2023-04-18T22:40:20.489Z,6.00
2023-04-18T22:42:53.016Z,6.00
2023-04-18T22:45:25.750Z,6.00
2023-04-18T22:47:58.250Z,6.00
2023-04-18T22:50:31.061Z,6.00
2023-04-18T22:53:03.829Z,6.00
2023-04-18T22:55:40.726Z,6.00
2023-04-18T22:58:13.702Z,5.90
2023-04-18T23:00:46.496Z,6.00
2023-04-18T23:03:19.097Z,5.90
2023-04-18T23:05:52.534Z,5.90
2023-04-18T23:08:25.038Z,5.90
2023-04-18T23:10:57.889Z,5.90
2023-04-18T23:13:30.383Z,5.90
2023-04-18T23:16:03.330Z,5.90
2023-04-18T23:18:35.876Z,5.80
2023-04-18T23:21:08.677Z,5.80
2023-04-18T23:23:41.201Z,5.80
2023-04-18T23:26:15.466Z,5.80
2023-04-18T23:28:48.017Z,5.70
2023-04-18T23:31:22.033Z,5.70
2023-04-18T23:33:58.686Z,5.70
2023-04-18T23:36:32.395Z,5.70
2023-04-18T23:39:04.948Z,5.70
2023-04-18T23:41:37.758Z,5.60
2023-04-18T23:44:10.254Z,5.60
2023-04-18T23:46:43.034Z,5.50
2023-04-18T23:49:16.009Z,5.50
2023-04-18T23:51:48.813Z,5.50
2023-04-18T23:54:21.406Z,5.40
2023-04-18T23:56:54.179Z,5.40
2023-04-18T23:59:26.811Z,5.40
